Time;durP1;ratioP1;P1;durP2;ratioP2;P2;SDS_P1;SDS_P2;PMS_P1;PMS_P2;Temp;Humidity;BMP_temperature;BMP_pressure;BME280_temperature;BME280_humidity;BME280_pressure;Samples;Min_cycle;Max_cycle;Signal;HPM_P1;HPM_P2
2022/04/29 00:00:42;;;;;;;16.23;10.10;;;14.70;99.90;;;;;;5070977;28;20024;-78
2022/04/29 00:03:09;;;;;;;13.80;9.75;;;14.70;99.90;;;;;;5079297;28;20497;-77
2022/04/29 00:05:35;;;;;;;14.35;9.65;;;14.60;99.90;;;;;;5091709;28;20023;-77
2022/04/29 00:08:05;;;;;;;12.68;9.52;;;14.60;99.90;;;;;;5077700;28;20032;-77
2022/04/29 00:10:31;;;;;;;16.55;9.73;;;14.70;99.90;;;;;;5080880;28;20024;-78
2022/04/29 00:12:59;;;;;;;17.60;10.30;;;14.70;99.90;;;;;;5084767;28;20047;-78
2022/04/29 00:15:25;;;;;;;14.88;10.55;;;14.70;99.90;;;;;;5072514;28;20019;-77
2022/04/29 00:17:51;;;;;;;14.38;10.07;;;14.60;99.90;;;;;;5080403;28;20025;-77
2022/04/29 00:20:17;;;;;;;14.43;9.63;;;14.60;99.90;;;;;;5086594;28;20020;-78
2022/04/29 00:22:44;;;;;;;11.65;9.00;;;14.60;99.90;;;;;;5084772;28;20582;-77
2022/04/29 00:25:10;;;;;;;11.15;8.70;;;14.60;99.90;;;;;;5063677;28;20028;-77
2022/04/29 00:27:39;;;;;;;14.98;9.13;;;14.50;99.90;;;;;;5083174;28;20028;-77
2022/04/29 00:30:07;;;;;;;13.45;9.77;;;14.60;99.90;;;;;;5072192;28;20021;-77
2022/04/29 00:32:33;;;;;;;15.38;10.10;;;14.60;99.90;;;;;;5064059;28;20040;-77
2022/04/29 00:34:59;;;;;;;11.88;9.32;;;14.60;99.90;;;;;;5082160;28;20060;-78
2022/04/29 00:37:25;;;;;;;11.75;8.77;;;14.60;99.90;;;;;;5082094;28;20509;-77
2022/04/29 00:39:51;;;;;;;16.63;9.35;;;14.60;99.90;;;;;;5075415;28;20052;-78
2022/04/29 00:42:21;;;;;;;11.85;8.32;;;14.60;99.90;;;;;;5079795;28;20489;-78
2022/04/29 00:44:48;;;;;;;17.20;9.50;;;14.50;99.90;;;;;;5068737;28;20100;-78
2022/04/29 00:47:16;;;;;;;13.43;8.85;;;14.50;99.90;;;;;;5086891;28;20038;-78
2022/04/29 00:49:43;;;;;;;15.88;10.45;;;14.50;99.90;;;;;;5085735;28;20016;-77
2022/04/29 00:52:13;;;;;;;13.98;9.27;;;14.40;99.90;;;;;;5082906;28;20083;-77
2022/04/29 00:54:42;;;;;;;18.35;9.82;;;14.40;99.90;;;;;;5072685;28;20066;-78
2022/04/29 00:57:14;;;;;;;13.88;10.25;;;14.40;99.90;;;;;;5088904;28;20044;-78
2022/04/29 00:59:55;;;;;;;13.18;9.13;;;14.40;99.90;;;;;;5077111;28;20017;-78
2022/04/29 01:02:21;;;;;;;12.15;9.73;;;14.40;99.90;;;;;;5084161;28;20056;-78
2022/04/29 01:05:01;;;;;;;12.73;8.65;;;14.40;99.90;;;;;;5078726;28;20035;-78
2022/04/29 01:07:31;;;;;;;15.52;10.25;;;14.40;99.90;;;;;;5073595;28;20093;-77
2022/04/29 01:09:57;;;;;;;13.90;9.27;;;14.40;99.90;;;;;;5076671;28;20023;-78
2022/04/29 01:12:25;;;;;;;13.90;9.80;;;14.40;99.90;;;;;;5070628;28;20018;-78
2022/04/29 01:14:56;;;;;;;15.55;10.07;;;14.40;99.90;;;;;;5077915;28;20103;-78
2022/04/29 01:17:22;;;;;;;15.23;10.13;;;14.40;99.90;;;;;;5084217;28;20024;-78
2022/04/29 01:19:48;;;;;;;16.23;9.48;;;14.30;99.90;;;;;;5081198;28;20043;-78
2022/04/29 01:22:14;;;;;;;16.75;10.88;;;14.40;99.90;;;;;;5082099;28;20521;-78
2022/04/29 01:24:40;;;;;;;16.13;10.40;;;14.40;99.90;;;;;;5066932;28;20028;-77
2022/04/29 01:27:10;;;;;;;12.80;9.20;;;14.40;99.90;;;;;;5082377;28;20060;-78
2022/04/29 01:29:40;;;;;;;12.68;9.20;;;14.40;99.90;;;;;;5074971;28;20025;-77
2022/04/29 01:32:09;;;;;;;11.40;8.63;;;14.40;99.90;;;;;;5076422;28;20032;-77
2022/04/29 01:34:36;;;;;;;12.60;8.07;;;14.40;99.90;;;;;;5083021;28;20038;-77
2022/04/29 01:37:03;;;;;;;12.30;9.10;;;14.40;99.90;;;;;;5079274;28;20024;-77
2022/04/29 01:39:29;;;;;;;14.25;8.85;;;14.40;99.90;;;;;;5077040;28;20046;-79
2022/04/29 01:41:55;;;;;;;14.10;9.80;;;14.40;99.90;;;;;;5082616;28;20502;-77
2022/04/29 01:44:20;;;;;;;12.32;8.75;;;14.40;99.90;;;;;;5082702;28;20804;-77
2022/04/29 01:46:46;;;;;;;11.00;8.25;;;14.40;99.90;;;;;;5085959;28;20093;-77
2022/04/29 01:49:12;;;;;;;12.30;8.73;;;14.40;99.90;;;;;;5087665;28;20032;-77
2022/04/29 01:51:38;;;;;;;13.02;8.73;;;14.30;99.90;;;;;;5075030;28;20031;-77
2022/04/29 01:54:09;;;;;;;15.48;9.48;;;14.40;99.90;;;;;;5076107;28;20024;-77
2022/04/29 01:56:35;;;;;;;14.20;10.02;;;14.30;99.90;;;;;;5081560;28;20103;-77
2022/04/29 01:59:03;;;;;;;15.40;10.05;;;14.30;99.90;;;;;;5082462;28;20029;-77
2022/04/29 02:01:28;;;;;;;14.70;10.18;;;14.30;99.90;;;;;;5073000;28;20020;-78
2022/04/29 02:03:55;;;;;;;15.27;10.48;;;14.30;99.90;;;;;;5079569;28;20017;-77
2022/04/29 02:06:21;;;;;;;13.40;9.10;;;14.30;99.90;;;;;;5079186;28;20014;-77
2022/04/29 02:08:48;;;;;;;14.15;9.05;;;14.30;99.90;;;;;;5069191;28;20025;-77
2022/04/29 02:11:17;;;;;;;12.85;8.98;;;14.40;99.90;;;;;;5077885;28;20020;-77
2022/04/29 02:13:45;;;;;;;12.18;9.35;;;14.30;99.90;;;;;;5066884;28;20024;-78
2022/04/29 02:16:13;;;;;;;12.80;8.98;;;14.40;99.90;;;;;;5076308;28;20118;-77
2022/04/29 02:18:39;;;;;;;13.18;8.75;;;14.50;99.90;;;;;;5077578;28;20019;-77
2022/04/29 02:21:04;;;;;;;12.18;7.82;;;14.50;99.90;;;;;;5082117;28;20036;-77
2022/04/29 02:23:30;;;;;;;13.10;8.02;;;14.40;99.90;;;;;;5074788;28;20521;-78
2022/04/29 02:25:57;;;;;;;14.02;9.43;;;14.30;99.90;;;;;;5084298;28;20125;-78
2022/04/29 02:28:24;;;;;;;13.25;8.57;;;14.30;99.90;;;;;;5085666;28;20150;-77
2022/04/29 02:30:50;;;;;;;15.55;8.80;;;14.40;99.90;;;;;;5087039;28;20024;-77
2022/04/29 02:33:15;;;;;;;16.75;10.63;;;14.30;99.90;;;;;;5075270;28;20401;-78
2022/04/29 02:35:41;;;;;;;12.63;8.43;;;14.30;99.90;;;;;;5075127;28;20117;-77
2022/04/29 02:38:07;;;;;;;13.32;8.63;;;14.30;99.90;;;;;;5079156;28;20012;-77
2022/04/29 02:40:32;;;;;;;16.10;11.02;;;14.30;99.90;;;;;;5080741;28;20505;-78
2022/04/29 02:42:58;;;;;;;13.95;9.80;;;14.20;99.90;;;;;;5077450;28;20023;-78
2022/04/29 02:45:24;;;;;;;14.82;9.95;;;14.30;99.90;;;;;;5082475;28;20489;-78
2022/04/29 02:47:50;;;;;;;14.27;10.15;;;14.10;99.90;;;;;;5073052;28;20503;-78
2022/04/29 02:50:16;;;;;;;14.32;9.10;;;14.20;99.90;;;;;;5074095;28;20097;-78
2022/04/29 02:52:42;;;;;;;12.25;8.70;;;14.20;99.90;;;;;;5066666;28;20025;-77
2022/04/29 02:55:08;;;;;;;13.13;8.77;;;14.20;99.90;;;;;;5072555;28;20024;-78
2022/04/29 02:57:34;;;;;;;13.07;8.85;;;14.20;99.90;;;;;;5064604;28;20044;-78
2022/04/29 02:59:59;;;;;;;12.43;8.45;;;14.20;99.90;;;;;;5081131;28;20024;-77
2022/04/29 03:02:26;;;;;;;10.40;8.25;;;14.20;99.90;;;;;;5086896;28;20024;-78
2022/04/29 03:04:52;;;;;;;11.02;7.43;;;14.20;99.90;;;;;;5084982;28;20021;-77
2022/04/29 03:07:17;;;;;;;10.45;7.70;;;14.30;99.90;;;;;;5071665;28;20074;-77
2022/04/29 03:09:43;;;;;;;8.98;6.47;;;14.30;99.90;;;;;;5066617;28;20555;-77
2022/04/29 03:12:12;;;;;;;8.05;6.65;;;14.40;99.90;;;;;;5074279;28;20028;-77
2022/04/29 03:14:38;;;;;;;8.85;6.50;;;14.30;99.90;;;;;;5075383;28;20104;-77
2022/04/29 03:17:04;;;;;;;7.28;6.35;;;14.30;99.90;;;;;;5080950;28;20067;-77
2022/04/29 03:19:30;;;;;;;8.57;6.72;;;14.20;99.90;;;;;;5080273;28;20024;-77
2022/04/29 03:21:56;;;;;;;8.32;6.55;;;14.20;99.90;;;;;;5076405;28;20438;-77
2022/04/29 03:24:22;;;;;;;6.43;5.75;;;14.30;99.90;;;;;;5070307;28;20103;-77
2022/04/29 03:26:48;;;;;;;7.35;6.15;;;14.20;99.90;;;;;;5079592;28;20024;-77
2022/04/29 03:29:14;;;;;;;7.50;5.60;;;14.30;99.90;;;;;;5076004;28;20020;-77
2022/04/29 03:31:40;;;;;;;7.95;5.65;;;14.30;99.90;;;;;;5079026;28;20036;-77
2022/04/29 03:34:06;;;;;;;7.97;5.60;;;14.20;99.90;;;;;;5071965;28;20538;-77
2022/04/29 03:36:32;;;;;;;6.10;5.28;;;14.30;99.90;;;;;;5065458;28;20021;-77
2022/04/29 03:38:57;;;;;;;5.85;5.22;;;14.30;99.90;;;;;;5079495;28;20559;-77
2022/04/29 03:41:23;;;;;;;6.95;4.88;;;14.20;99.90;;;;;;5079017;28;20403;-77
2022/04/29 03:43:49;;;;;;;6.20;4.55;;;14.20;99.90;;;;;;5070939;28;20561;-77
2022/04/29 03:46:15;;;;;;;5.88;4.65;;;14.10;99.90;;;;;;5072619;28;20409;-78
2022/04/29 03:51:42;;;;;;;4.82;3.83;;;14.00;99.90;;;;;;5057017;28;20029;-77
2022/04/29 03:54:08;;;;;;;4.65;4.05;;;14.00;99.90;;;;;;5058117;28;20111;-78
2022/04/29 03:56:34;;;;;;;5.57;4.07;;;14.00;99.90;;;;;;5063422;28;20051;-77
2022/04/29 03:58:59;;;;;;;4.88;4.28;;;14.10;99.90;;;;;;5066818;28;20497;-77
2022/04/29 04:01:25;;;;;;;5.15;3.80;;;14.20;99.90;;;;;;5052924;28;20620;-77
2022/04/29 04:03:52;;;;;;;5.75;3.65;;;14.30;99.90;;;;;;5068447;28;20044;-77
2022/04/29 04:09:02;;;;;;;4.07;3.58;;;14.20;99.90;;;;;;5066130;28;20094;-78
2022/04/29 04:11:27;;;;;;;4.68;3.75;;;14.20;99.90;;;;;;5070621;28;20029;-78
2022/04/29 04:13:53;;;;;;;3.92;3.47;;;14.20;99.90;;;;;;5066961;28;20553;-78
2022/04/29 04:16:19;;;;;;;5.07;3.13;;;14.10;99.90;;;;;;5064446;28;20549;-78
2022/04/29 04:18:44;;;;;;;4.47;3.22;;;14.10;99.90;;;;;;5053785;28;20064;-78
2022/04/29 04:21:10;;;;;;;3.08;2.67;;;14.00;99.90;;;;;;5067786;28;20102;-78
2022/04/29 04:23:36;;;;;;;2.92;2.63;;;14.10;99.90;;;;;;5062886;28;20097;-78
2022/04/29 04:26:02;;;;;;;3.65;2.72;;;14.10;99.90;;;;;;5059418;28;20068;-78
2022/04/29 04:28:28;;;;;;;3.67;3.22;;;14.10;99.90;;;;;;5067837;28;20033;-78
2022/04/29 04:30:54;;;;;;;2.83;2.53;;;14.10;99.90;;;;;;5068327;28;20081;-78
2022/04/29 04:33:19;;;;;;;2.90;2.58;;;14.10;99.90;;;;;;5065859;28;20037;-78
2022/04/29 04:35:45;;;;;;;4.30;3.33;;;14.10;99.90;;;;;;5073341;28;20483;-78
2022/04/29 04:38:11;;;;;;;2.92;2.60;;;14.00;99.90;;;;;;5078829;28;20464;-78
2022/04/29 04:40:36;;;;;;;4.43;2.88;;;14.00;99.90;;;;;;5074367;28;20046;-78
2022/04/29 04:43:02;;;;;;;2.92;2.63;;;13.90;99.90;;;;;;5070795;28;20487;-78
2022/04/29 04:45:27;;;;;;;3.35;3.05;;;13.90;99.90;;;;;;5082403;28;20024;-78
2022/04/29 04:47:53;;;;;;;3.63;3.22;;;13.80;99.90;;;;;;5058431;28;20029;-78
2022/04/29 04:50:19;;;;;;;3.28;2.97;;;13.90;99.90;;;;;;5076680;28;20025;-78
2022/04/29 04:52:45;;;;;;;5.25;3.92;;;13.90;99.90;;;;;;5080482;28;20503;-78
2022/04/29 04:55:11;;;;;;;3.05;2.75;;;13.90;99.90;;;;;;5069215;28;20039;-78
2022/04/29 04:57:37;;;;;;;3.70;3.13;;;13.90;99.90;;;;;;5071241;28;20076;-78
2022/04/29 05:00:04;;;;;;;3.28;2.75;;;13.90;99.90;;;;;;5073871;28;20108;-78
2022/04/29 05:02:29;;;;;;;3.67;2.58;;;13.80;99.90;;;;;;5087002;28;20109;-78
2022/04/29 05:04:58;;;;;;;2.95;2.60;;;13.90;99.90;;;;;;5063134;28;20488;-78
2022/04/29 05:07:25;;;;;;;3.65;2.80;;;13.80;99.90;;;;;;5066358;28;20023;-78
2022/04/29 05:09:51;;;;;;;5.47;3.17;;;13.80;99.90;;;;;;5067444;28;20020;-78
2022/04/29 05:12:16;;;;;;;6.30;3.72;;;13.70;99.90;;;;;;5066440;28;20039;-78
2022/04/29 05:14:42;;;;;;;4.10;3.50;;;13.80;99.90;;;;;;5069024;28;20029;-78
2022/04/29 05:17:08;;;;;;;7.65;3.22;;;13.80;99.90;;;;;;5081072;28;20482;-78
2022/04/29 05:19:33;;;;;;;4.65;3.58;;;13.70;99.90;;;;;;5072178;28;20028;-78
2022/04/29 05:21:59;;;;;;;5.78;3.92;;;13.70;99.90;;;;;;5072630;28;20736;-78
2022/04/29 05:24:25;;;;;;;7.25;4.00;;;13.70;99.90;;;;;;5066324;28;20033;-78
2022/04/29 05:26:50;;;;;;;7.10;4.25;;;13.80;99.90;;;;;;5059123;28;20100;-78
2022/04/29 05:29:16;;;;;;;5.38;3.50;;;13.90;99.90;;;;;;5076135;28;20487;-78
2022/04/29 05:31:42;;;;;;;3.97;3.38;;;13.90;99.90;;;;;;5079181;28;20028;-78
2022/04/29 05:34:08;;;;;;;4.65;3.78;;;13.90;99.90;;;;;;5065057;28;20028;-78
2022/04/29 05:36:36;;;;;;;4.32;3.30;;;13.90;99.90;;;;;;5067749;28;20020;-78
2022/04/29 05:44:32;;;;;;;5.38;3.60;;;13.80;99.90;;;;;;5064407;28;20054;-78
2022/04/29 05:46:58;;;;;;;4.78;3.72;;;13.80;99.90;;;;;;5070793;28;20017;-78
2022/04/29 05:49:24;;;;;;;4.72;3.50;;;13.80;99.90;;;;;;5065389;28;20044;-78
2022/04/29 05:51:49;;;;;;;4.55;3.85;;;13.70;99.90;;;;;;5060932;28;20080;-78
2022/04/29 05:54:15;;;;;;;4.95;3.92;;;13.70;99.90;;;;;;5067902;28;20020;-78
2022/04/29 05:56:40;;;;;;;4.47;3.50;;;13.70;99.90;;;;;;5076176;28;20041;-77
2022/04/29 05:59:06;;;;;;;3.97;3.42;;;13.80;99.90;;;;;;5076092;28;20074;-78
2022/04/29 06:01:32;;;;;;;4.03;3.40;;;13.90;99.90;;;;;;5070612;28;20035;-78
2022/04/29 06:03:57;;;;;;;3.30;3.00;;;13.90;99.90;;;;;;5071911;28;20051;-77
2022/04/29 06:06:23;;;;;;;4.22;3.53;;;13.90;99.90;;;;;;5061523;28;20398;-78
2022/04/29 06:08:49;;;;;;;4.00;3.28;;;13.80;99.90;;;;;;5057410;28;20080;-78
2022/04/29 06:11:14;;;;;;;5.97;3.70;;;13.80;99.90;;;;;;5073042;28;20036;-78
2022/04/29 06:13:40;;;;;;;4.53;3.83;;;13.90;99.90;;;;;;5078314;28;20058;-78
2022/04/29 06:16:06;;;;;;;5.18;3.55;;;13.80;99.90;;;;;;5063230;28;20028;-79
2022/04/29 06:18:32;;;;;;;3.63;3.33;;;13.80;99.90;;;;;;5060400;28;20028;-78
2022/04/29 06:20:58;;;;;;;3.53;3.22;;;13.90;99.90;;;;;;5072919;28;20028;-79
2022/04/29 06:23:24;;;;;;;4.55;3.25;;;13.90;99.90;;;;;;5082042;28;20500;-78
2022/04/29 06:25:50;;;;;;;3.97;3.15;;;13.90;99.90;;;;;;5063095;28;20063;-78
2022/04/29 06:28:16;;;;;;;4.20;3.72;;;14.00;99.90;;;;;;5072036;28;20508;-78
2022/04/29 06:30:41;;;;;;;5.15;3.15;;;14.00;99.90;;;;;;5061638;28;20026;-78
2022/04/29 06:33:07;;;;;;;3.92;3.55;;;14.10;99.90;;;;;;5068193;28;20029;-78
2022/04/29 06:35:35;;;;;;;3.60;3.20;;;14.10;99.90;;;;;;5078813;28;20095;-78
2022/04/29 06:38:00;;;;;;;5.53;3.50;;;14.10;99.90;;;;;;5074770;28;20027;-79
2022/04/29 06:40:28;;;;;;;5.13;4.28;;;14.10;99.90;;;;;;5073466;28;20028;-79
2022/04/29 06:42:53;;;;;;;6.15;3.92;;;14.00;99.90;;;;;;5073905;28;20508;-79
2022/04/29 06:45:19;;;;;;;4.10;3.70;;;14.10;99.90;;;;;;5056485;28;20028;-78
2022/04/29 06:47:45;;;;;;;5.82;3.45;;;14.20;99.90;;;;;;5067603;28;20487;-78
2022/04/29 06:50:10;;;;;;;7.25;3.83;;;14.20;99.90;;;;;;5064671;28;20455;-79
2022/04/29 06:52:36;;;;;;;5.55;4.05;;;14.20;99.90;;;;;;5065001;28;20059;-79
2022/04/29 06:55:02;;;;;;;4.05;3.30;;;14.20;99.90;;;;;;5065069;28;20553;-79
2022/04/29 06:57:29;;;;;;;9.20;3.92;;;14.20;99.90;;;;;;5058388;28;20095;-79
2022/04/29 06:59:54;;;;;;;6.47;3.90;;;14.30;99.90;;;;;;5062485;28;20013;-78
2022/04/29 07:02:20;;;;;;;5.13;4.03;;;14.40;99.90;;;;;;5063011;28;20617;-78
2022/04/29 07:04:46;;;;;;;4.20;3.80;;;14.50;99.90;;;;;;5070602;28;20557;-78
2022/04/29 07:07:11;;;;;;;4.78;3.70;;;14.70;99.90;;;;;;5065457;28;20036;-78
2022/04/29 07:09:40;;;;;;;4.05;3.65;;;14.70;99.90;;;;;;5058607;28;20100;-79
2022/04/29 07:12:07;;;;;;;3.95;3.47;;;14.80;99.90;;;;;;5064834;28;20336;-79
2022/04/29 07:14:34;;;;;;;4.20;3.30;;;14.90;99.90;;;;;;5066910;28;20008;-79
2022/04/29 07:16:59;;;;;;;3.83;3.42;;;15.00;99.90;;;;;;5068335;28;20106;-79
2022/04/29 07:19:25;;;;;;;5.45;3.65;;;15.20;99.90;;;;;;5070897;28;20502;-79
2022/04/29 07:21:51;;;;;;;7.82;4.10;;;15.00;99.90;;;;;;5070797;28;20032;-79
2022/04/29 07:24:18;;;;;;;4.70;3.53;;;15.00;99.90;;;;;;5068312;28;20082;-79
2022/04/29 07:26:44;;;;;;;3.65;3.20;;;15.00;99.90;;;;;;5074357;28;20029;-79
2022/04/29 07:29:10;;;;;;;4.97;4.28;;;15.20;99.90;;;;;;5083146;28;20107;-79
2022/04/29 07:31:36;;;;;;;4.68;3.42;;;15.30;99.90;;;;;;5072682;28;20611;-79
2022/04/29 07:34:02;;;;;;;4.97;3.88;;;15.20;99.90;;;;;;5068552;28;20051;-79
2022/04/29 07:41:57;;;;;;;3.72;3.33;;;15.10;99.90;;;;;;5069937;28;20086;-81
2022/04/29 07:44:22;;;;;;;4.10;3.70;;;15.20;99.90;;;;;;5074527;28;20033;-80
2022/04/29 07:46:49;;;;;;;4.03;3.20;;;15.30;99.90;;;;;;5073883;28;20028;-79
2022/04/29 07:49:15;;;;;;;3.88;3.40;;;15.30;99.90;;;;;;5071734;28;20024;-80
2022/04/29 07:51:42;;;;;;;5.60;3.38;;;15.20;99.90;;;;;;5066973;28;20032;-80
2022/04/29 07:54:08;;;;;;;4.28;3.58;;;15.20;99.90;;;;;;5072920;28;20468;-79
2022/04/29 07:56:34;;;;;;;3.67;3.38;;;15.30;99.90;;;;;;5081727;28;20048;-79
2022/04/29 07:59:00;;;;;;;3.85;2.95;;;15.30;99.90;;;;;;5078518;28;20020;-79
2022/04/29 08:01:26;;;;;;;3.63;3.33;;;15.40;99.90;;;;;;5076187;28;20078;-79
2022/04/29 08:03:53;;;;;;;3.42;2.85;;;15.30;99.90;;;;;;5064607;28;20052;-79
2022/04/29 08:06:19;;;;;;;4.63;3.05;;;15.70;99.90;;;;;;5066940;28;20477;-79
2022/04/29 08:08:45;;;;;;;4.80;3.58;;;15.80;99.90;;;;;;5064213;28;20022;-78
2022/04/29 08:11:11;;;;;;;2.97;2.70;;;15.90;99.90;;;;;;5067279;28;20660;-79
2022/04/29 08:13:38;;;;;;;4.15;3.15;;;16.00;99.90;;;;;;5060520;28;20028;-79
2022/04/29 08:16:05;;;;;;;3.80;3.13;;;16.00;99.90;;;;;;5066443;28;20039;-79
2022/04/29 08:18:32;;;;;;;4.30;2.40;;;15.80;99.90;;;;;;5061636;28;20477;-79
2022/04/29 08:20:57;;;;;;;3.10;2.80;;;15.90;99.90;;;;;;5062985;28;20506;-79
2022/04/29 08:23:23;;;;;;;3.50;2.75;;;15.80;99.90;;;;;;5073116;28;20024;-79
2022/04/29 08:25:49;;;;;;;3.03;2.72;;;15.80;99.90;;;;;;5076097;28;20032;-79
2022/04/29 08:28:15;;;;;;;4.55;3.70;;;15.90;99.90;;;;;;5064428;28;20102;-79
2022/04/29 08:30:41;;;;;;;3.63;2.75;;;15.70;99.90;;;;;;5070276;28;20402;-79
2022/04/29 08:33:12;;;;;;;4.57;3.38;;;15.70;99.90;;;;;;5065499;28;20028;-79
2022/04/29 08:35:37;;;;;;;3.17;2.88;;;15.80;99.90;;;;;;5061756;28;20052;-79
2022/04/29 08:38:04;;;;;;;3.55;3.25;;;16.00;99.90;;;;;;5059139;28;20065;-79
2022/04/29 08:40:30;;;;;;;4.13;3.15;;;16.20;99.90;;;;;;5070737;28;20103;-79
2022/04/29 08:42:57;;;;;;;4.10;3.05;;;16.20;99.90;;;;;;5074463;28;20062;-79
2022/04/29 08:45:23;;;;;;;3.22;2.92;;;16.30;99.90;;;;;;5064113;28;20032;-79
2022/04/29 08:47:48;;;;;;;3.22;2.88;;;16.30;99.90;;;;;;5066579;28;20025;-79
2022/04/29 08:50:19;;;;;;;5.15;2.58;;;16.30;99.90;;;;;;5077425;28;20032;-79
2022/04/29 08:52:47;;;;;;;3.70;2.63;;;16.60;99.90;;;;;;5072615;28;20020;-79
2022/04/29 09:00:44;;;;;;;2.47;2.17;;;16.80;99.90;;;;;;5061371;28;20032;-79
2022/04/29 09:03:14;;;;;;;3.28;2.90;;;17.00;99.90;;;;;;5064050;28;20083;-79
2022/04/29 09:05:41;;;;;;;3.25;2.80;;;17.10;99.90;;;;;;5068506;28;20028;-79
2022/04/29 09:08:10;;;;;;;2.97;2.67;;;17.30;99.90;;;;;;5069157;28;20131;-79
2022/04/29 09:10:38;;;;;;;3.00;2.75;;;17.10;99.90;;;;;;5071070;28;20115;-79
2022/04/29 09:13:11;;;;;;;4.03;3.30;;;16.70;99.90;;;;;;5065522;28;20525;-80
2022/04/29 09:15:38;;;;;;;4.13;3.03;;;16.90;99.90;;;;;;5067579;28;20020;-80
2022/04/29 09:18:04;;;;;;;3.25;2.95;;;17.30;99.90;;;;;;5077747;28;20025;-80
2022/04/29 09:20:29;;;;;;;3.55;3.25;;;17.40;99.90;;;;;;5068821;28;20055;-80
2022/04/29 09:22:55;;;;;;;2.65;2.45;;;17.50;99.90;;;;;;5074133;28;20071;-79
2022/04/29 09:25:21;;;;;;;3.20;2.90;;;17.70;99.90;;;;;;5071804;28;20027;-79
2022/04/29 09:27:56;;;;;;;3.20;2.85;;;17.90;99.90;;;;;;5074761;28;20092;-80
2022/04/29 09:30:37;;;;;;;4.13;3.50;;;17.70;99.90;;;;;;5054567;28;20112;-80
2022/04/29 09:33:03;;;;;;;;;;;17.60;99.90;;;;;;5062155;28;20486;-80
2022/04/29 09:35:42;;;;;;;2.85;2.60;;;17.90;99.90;;;;;;5064626;28;19910;-80
2022/04/29 09:40:55;;;;;;;3.45;2.80;;;18.30;99.90;;;;;;5075279;28;20418;-81
2022/04/29 09:43:44;;;;;;;4.03;2.80;;;18.30;99.90;;;;;;5081255;28;20030;-80
2022/04/29 09:46:19;;;;;;;4.47;3.22;;;18.20;99.90;;;;;;5059011;28;20020;-80
2022/04/29 09:49:06;;;;;;;4.32;3.20;;;18.40;99.90;;;;;;5061754;28;20035;-80
2022/04/29 09:52:00;;;;;;;3.92;3.30;;;18.40;99.90;;;;;;5058176;28;20020;-79
2022/04/29 09:54:29;;;;;;;2.97;2.65;;;18.60;99.90;;;;;;5060540;28;20115;-79
2022/04/29 09:57:14;;;;;;;4.38;2.85;;;18.80;99.90;;;;;;5057241;28;20078;-80
2022/04/29 09:59:41;;;;;;;2.78;2.50;;;18.90;99.90;;;;;;5067185;28;20119;-80
2022/04/29 10:02:09;;;;;;;3.72;2.83;;;18.60;99.90;;;;;;5076778;28;20021;-80
2022/04/29 10:04:38;;;;;;;3.45;3.15;;;18.50;99.90;;;;;;5075657;28;20127;-80
2022/04/29 10:07:05;;;;;;;3.72;3.10;;;18.60;99.90;;;;;;5065557;28;20060;-80
2022/04/29 10:09:33;;;;;;;3.03;2.72;;;18.50;99.90;;;;;;5059380;28;20031;-80
2022/04/29 10:12:04;;;;;;;3.30;2.40;;;18.60;99.90;;;;;;5072120;28;20499;-80
2022/04/29 10:14:36;;;;;;;4.00;2.72;;;18.80;99.90;;;;;;5060968;28;20029;-80
2022/04/29 10:22:53;;;;;;;5.90;2.60;;;19.00;99.90;;;;;;5071390;28;20449;-80
2022/04/29 10:25:22;;;;;;;3.75;3.00;;;19.20;99.90;;;;;;5063523;28;20021;-80
2022/04/29 10:27:52;;;;;;;4.90;3.33;;;19.50;99.90;;;;;;5053943;28;20086;-80
2022/04/29 10:30:28;;;;;;;4.25;3.03;;;19.60;99.90;;;;;;5074154;28;20024;-80
2022/04/29 10:33:13;;;;;;;4.25;3.15;;;20.20;99.90;;;;;;5076605;28;20113;-80
2022/04/29 10:35:50;;;;;;;3.10;2.80;;;20.40;99.90;;;;;;5060004;28;20104;-80
2022/04/29 10:38:17;;;;;;;3.17;2.72;;;20.90;99.90;;;;;;5069723;28;20075;-80
2022/04/29 10:40:44;;;;;;;2.75;2.55;;;21.00;99.90;;;;;;5073541;28;20017;-80
2022/04/29 10:43:13;;;;;;;5.47;2.58;;;21.10;99.90;;;;;;5076241;28;20050;-80
2022/04/29 10:46:03;;;;;;;3.05;2.78;;;21.20;99.70;;;;;;5067117;28;20267;-80
2022/04/29 10:48:40;;;;;;;3.35;3.05;;;20.90;99.90;;;;;;5052299;28;20037;-81
2022/04/29 10:51:15;;;;;;;3.70;3.10;;;20.90;99.60;;;;;;5077029;28;20025;-80
2022/04/29 10:53:43;;;;;;;4.43;3.20;;;21.10;99.90;;;;;;5055009;28;20091;-80
2022/04/29 10:56:31;;;;;;;3.55;3.10;;;21.40;99.90;;;;;;5069531;28;20089;-80
2022/04/29 10:59:09;;;;;;;3.53;3.00;;;21.20;99.80;;;;;;5072929;28;20111;-80
2022/04/29 11:01:36;;;;;;;3.33;3.03;;;21.50;99.90;;;;;;5068952;28;20123;-81
2022/04/29 11:04:28;;;;;;;3.55;3.00;;;21.50;99.70;;;;;;5064885;28;20032;-81
2022/04/29 11:06:53;;;;;;;3.17;2.88;;;21.50;99.90;;;;;;5060029;28;20048;-81
2022/04/29 11:09:28;;;;;;;2.67;2.47;;;21.60;99.90;;;;;;5055442;28;20024;-81
2022/04/29 11:11:58;;;;;;;3.13;2.83;;;21.70;99.30;;;;;;5073895;28;20106;-81
2022/04/29 11:14:23;;;;;;;3.65;2.70;;;21.60;99.00;;;;;;5063546;28;20139;-81
2022/04/29 11:16:53;;;;;;;3.88;2.72;;;21.50;99.30;;;;;;5071584;28;20138;-81
2022/04/29 11:19:26;;;;;;;4.60;3.35;;;21.40;99.20;;;;;;5066334;28;20020;-81
2022/04/29 11:24:44;;;;;;;3.55;3.05;;;21.00;99.60;;;;;;5065598;28;20043;-81
2022/04/29 11:27:10;;;;;;;4.05;3.58;;;20.70;99.90;;;;;;5062603;28;20577;-81
2022/04/29 11:29:43;;;;;;;3.38;2.85;;;21.10;99.90;;;;;;5068339;28;20051;-81
2022/04/29 11:32:09;;;;;;;3.15;2.80;;;21.40;99.70;;;;;;5068124;28;20565;-80
2022/04/29 11:34:35;;;;;;;3.08;2.78;;;21.70;98.90;;;;;;5065864;28;20032;-81
2022/04/29 11:37:01;;;;;;;4.22;2.90;;;21.90;99.20;;;;;;5064177;28;20024;-80
2022/04/29 11:39:34;;;;;;;2.75;2.55;;;21.90;98.60;;;;;;5061907;28;20024;-80
2022/04/29 11:42:01;;;;;;;3.58;3.22;;;21.70;98.70;;;;;;5074709;28;20017;-80
2022/04/29 11:44:49;;;;;;;3.90;3.35;;;20.90;99.90;;;;;;5065309;28;20155;-80
2022/04/29 11:47:16;;;;;;;4.90;3.42;;;20.60;99.90;;;;;;5067054;28;20028;-79
2022/04/29 11:49:42;;;;;;;4.10;3.08;;;20.90;99.80;;;;;;5070820;28;20093;-79
2022/04/29 11:52:30;;;;;;;5.90;3.38;;;21.50;99.90;;;;;;5074755;28;20074;-79
2022/04/29 11:55:14;;;;;;;4.15;3.42;;;21.80;99.60;;;;;;5072752;28;20020;-80
2022/04/29 11:57:49;;;;;;;6.00;3.65;;;21.80;98.80;;;;;;5064480;28;20542;-80
2022/04/29 12:00:25;;;;;;;4.50;3.22;;;21.70;98.60;;;;;;5078485;28;20035;-80
2022/04/29 12:02:52;;;;;;;3.25;2.95;;;21.80;98.80;;;;;;5084014;28;20166;-80
2022/04/29 12:05:25;;;;;;;3.67;2.97;;;21.90;98.60;;;;;;5075465;28;20033;-80
2022/04/29 12:07:52;;;;;;;3.55;3.25;;;22.20;99.50;;;;;;5069405;28;20041;-80
2022/04/29 12:10:26;;;;;;;3.85;3.45;;;22.00;99.70;;;;;;5061380;28;20040;-79
2022/04/29 12:12:56;;;;;;;4.47;3.88;;;22.10;99.90;;;;;;5060776;28;20064;-80
2022/04/29 12:15:30;;;;;;;5.25;3.88;;;22.30;99.30;;;;;;5063781;28;20513;-80
2022/04/29 12:18:01;;;;;;;4.10;3.40;;;22.30;99.30;;;;;;5065440;28;20032;-79
2022/04/29 12:20:28;;;;;;;4.03;3.58;;;22.10;98.40;;;;;;5066913;28;20021;-79
2022/04/29 12:22:54;;;;;;;5.82;4.13;;;22.10;98.80;;;;;;5075394;28;20104;-79
2022/04/29 12:25:21;;;;;;;4.85;3.97;;;22.20;98.10;;;;;;5065352;28;20096;-79
2022/04/29 12:28:08;;;;;;;3.90;3.42;;;22.00;98.50;;;;;;5065132;28;20501;-79
2022/04/29 12:36:11;;;;;;;4.88;4.03;;;23.00;98.40;;;;;;5064204;28;20040;-80
2022/04/29 12:38:39;;;;;;;4.47;3.72;;;22.50;98.20;;;;;;5066985;28;20067;-79
2022/04/29 12:41:24;;;;;;;6.13;4.03;;;22.00;98.50;;;;;;5072677;28;20116;-79
2022/04/29 12:43:54;;;;;;;4.20;3.78;;;21.90;99.00;;;;;;5072568;28;20028;-79
2022/04/29 12:46:21;;;;;;;3.78;3.42;;;22.00;99.20;;;;;;5058358;28;20021;-79
2022/04/29 12:48:48;;;;;;;4.50;3.88;;;22.00;99.10;;;;;;5060962;28;20038;-79
2022/04/29 12:51:29;;;;;;;4.75;3.90;;;22.20;98.40;;;;;;5059661;28;20031;-80
2022/04/29 12:54:00;;;;;;;3.97;3.42;;;22.30;98.20;;;;;;5063736;28;20039;-80
2022/04/29 12:56:31;;;;;;;3.40;3.10;;;22.20;98.30;;;;;;5071911;28;20542;-79
2022/04/29 12:58:59;;;;;;;4.10;3.33;;;22.00;99.50;;;;;;5057846;28;20043;-80
2022/04/29 13:01:24;;;;;;;5.28;3.63;;;22.10;99.30;;;;;;5065286;28;20024;-79
2022/04/29 13:03:53;;;;;;;4.80;4.35;;;22.10;99.40;;;;;;5061635;28;20501;-80
2022/04/29 13:06:20;;;;;;;5.72;4.13;;;22.00;99.70;;;;;;5057625;28;20638;-79
2022/04/29 13:08:48;;;;;;;5.50;3.92;;;22.00;99.40;;;;;;5060218;28;20498;-80
2022/04/29 13:11:16;;;;;;;4.13;3.70;;;22.00;99.20;;;;;;5072304;28;20055;-80
2022/04/29 13:13:42;;;;;;;3.78;3.42;;;21.90;99.20;;;;;;5072705;28;20039;-79
2022/04/29 13:16:08;;;;;;;5.20;3.53;;;21.80;99.60;;;;;;5076016;28;20032;-80
2022/04/29 13:18:34;;;;;;;5.10;4.13;;;22.00;99.90;;;;;;5076382;28;20524;-79
2022/04/29 13:21:00;;;;;;;4.00;3.60;;;22.00;99.50;;;;;;5064085;28;20613;-80
2022/04/29 13:23:27;;;;;;;4.88;3.85;;;22.00;98.90;;;;;;5078265;28;20047;-80
2022/04/29 13:25:55;;;;;;;4.00;3.60;;;22.00;99.30;;;;;;5079985;28;20115;-80